createdAt,value
2022-08-31T00:00:36.161Z,13.50
2022-08-31T00:03:22.735Z,13.40
2022-08-31T00:05:50.908Z,13.40
2022-08-31T00:08:19.055Z,13.40
2022-08-31T00:10:47.988Z,13.40
2022-08-31T00:13:18.034Z,13.40
2022-08-31T00:15:47.622Z,13.40
2022-08-31T00:18:16.763Z,13.40
2022-08-31T00:20:46.218Z,13.40
2022-08-31T00:23:17.120Z,13.30
2022-08-31T00:25:48.871Z,13.30
2022-08-31T00:28:18.613Z,13.20
2022-08-31T00:30:48.634Z,13.20
2022-08-31T00:33:17.157Z,13.10
2022-08-31T00:35:45.598Z,13.10
2022-08-31T00:38:14.352Z,13.10
2022-08-31T00:40:46.225Z,13.10
2022-08-31T00:43:29.941Z,13.10
2022-08-31T00:45:59.389Z,13.10
2022-08-31T00:48:27.696Z,13.10
2022-08-31T00:50:56.726Z,13.10
2022-08-31T00:53:25.616Z,13.10
2022-08-31T00:55:54.228Z,13.00
2022-08-31T00:58:24.484Z,13.00
2022-08-31T01:00:53.080Z,12.90
2022-08-31T01:03:23.052Z,12.90
2022-08-31T01:05:51.586Z,12.90
2022-08-31T01:08:27.064Z,12.90
2022-08-31T01:11:00.472Z,12.90
2022-08-31T01:13:33.051Z,12.90
2022-08-31T01:16:06.491Z,12.90
2022-08-31T01:18:36.501Z,12.90
2022-08-31T01:21:15.464Z,12.80
2022-08-31T01:23:46.505Z,12.80
2022-08-31T01:26:18.235Z,12.70
2022-08-31T01:28:48.761Z,12.70
2022-08-31T01:31:23.619Z,12.60
2022-08-31T01:33:52.077Z,12.60
2022-08-31T01:36:21.264Z,12.50
2022-08-31T01:38:53.292Z,12.50
2022-08-31T01:41:22.415Z,12.50
2022-08-31T01:43:53.017Z,12.50
2022-08-31T01:46:21.702Z,12.50
2022-08-31T01:48:50.771Z,12.50
2022-08-31T01:51:20.901Z,12.50
2022-08-31T01:53:53.149Z,12.50
2022-08-31T01:56:24.740Z,12.40
2022-08-31T01:58:53.128Z,12.40
2022-08-31T02:01:41.749Z,12.20
2022-08-31T02:04:11.764Z,12.20
2022-08-31T02:06:44.215Z,12.10
2022-08-31T02:09:14.817Z,12.10
2022-08-31T02:11:43.992Z,12.10
2022-08-31T02:14:13.270Z,12.10
2022-08-31T02:16:42.197Z,12.00
2022-08-31T02:19:10.796Z,12.00
2022-08-31T02:21:40.619Z,12.00
2022-08-31T02:24:11.286Z,12.00
2022-08-31T02:26:41.530Z,11.90
2022-08-31T02:29:09.986Z,11.90
2022-08-31T02:31:38.190Z,11.80
2022-08-31T02:34:06.629Z,11.80
2022-08-31T02:36:35.983Z,11.70
2022-08-31T02:39:06.105Z,11.70
2022-08-31T02:41:35.171Z,11.60
2022-08-31T02:44:05.031Z,11.60
2022-08-31T02:46:33.271Z,11.50
2022-08-31T02:49:21.615Z,11.50
2022-08-31T02:51:50.187Z,11.50
2022-08-31T02:54:18.630Z,11.50
2022-08-31T02:56:47.905Z,11.50
2022-08-31T02:59:20.786Z,11.60
2022-08-31T03:01:50.046Z,11.50
2022-08-31T03:04:18.624Z,11.50
2022-08-31T03:06:47.834Z,11.50
2022-08-31T03:09:16.762Z,11.50
2022-08-31T03:11:45.303Z,11.60
2022-08-31T03:14:13.671Z,11.60
2022-08-31T03:16:43.557Z,11.70
2022-08-31T03:19:11.718Z,11.70
2022-08-31T03:21:39.838Z,11.70
2022-08-31T03:24:08.049Z,11.70
2022-08-31T03:26:36.199Z,11.70
2022-08-31T03:29:04.663Z,11.70
2022-08-31T03:31:53.397Z,11.70
2022-08-31T03:34:21.590Z,11.70
2022-08-31T03:36:49.731Z,11.70
2022-08-31T03:39:17.814Z,11.70
2022-08-31T03:41:46.000Z,11.70
2022-08-31T03:44:14.329Z,11.60
2022-08-31T03:46:45.429Z,11.50
2022-08-31T03:49:15.788Z,11.50
2022-08-31T03:51:55.742Z,11.50
2022-08-31T03:54:25.448Z,11.50
2022-08-31T03:56:53.550Z,11.50
2022-08-31T03:59:22.035Z,11.50
2022-08-31T04:02:18.992Z,11.50
2022-08-31T04:05:09.966Z,11.50
2022-08-31T04:07:57.428Z,11.40
2022-08-31T04:10:46.389Z,11.40
2022-08-31T04:13:34.837Z,11.40
2022-08-31T04:16:29.312Z,11.50
2022-08-31T04:19:11.356Z,11.50
2022-08-31T04:21:50.125Z,11.60
2022-08-31T04:24:18.393Z,11.50
2022-08-31T04:26:52.794Z,11.40
2022-08-31T04:29:21.343Z,11.40
2022-08-31T04:31:49.484Z,11.30
2022-08-31T04:34:17.907Z,11.30
2022-08-31T04:36:46.392Z,11.30
2022-08-31T04:39:16.703Z,11.30
2022-08-31T04:41:45.481Z,11.30
2022-08-31T04:44:19.731Z,11.30
2022-08-31T04:46:52.542Z,11.30
2022-08-31T04:49:20.563Z,11.30
2022-08-31T04:51:48.720Z,11.30
2022-08-31T04:54:18.114Z,11.30
2022-08-31T04:56:47.454Z,11.40
2022-08-31T04:59:27.268Z,11.40
2022-08-31T05:02:15.446Z,11.50
2022-08-31T05:04:51.954Z,11.50
2022-08-31T05:07:20.130Z,11.60
2022-08-31T05:09:49.914Z,11.70
2022-08-31T05:12:18.096Z,11.70
2022-08-31T05:14:47.796Z,11.80
2022-08-31T05:17:23.684Z,11.90
2022-08-31T05:19:53.359Z,11.90
2022-08-31T05:22:21.676Z,12.00
2022-08-31T05:24:54.061Z,11.90
2022-08-31T05:27:22.142Z,11.90
2022-08-31T05:29:50.293Z,11.90
2022-08-31T05:32:37.955Z,12.00
2022-08-31T05:35:09.134Z,12.00
2022-08-31T05:37:37.301Z,12.00
2022-08-31T05:40:08.331Z,12.00
2022-08-31T05:42:37.306Z,12.10
2022-08-31T05:45:06.072Z,12.20
2022-08-31T05:47:34.283Z,12.30
2022-08-31T05:50:02.442Z,12.40
2022-08-31T05:52:36.478Z,12.50
2022-08-31T05:55:07.197Z,12.60
2022-08-31T05:57:35.341Z,12.70
2022-08-31T06:00:03.946Z,12.80
2022-08-31T06:02:41.807Z,12.80
2022-08-31T06:05:12.755Z,13.00
2022-08-31T06:07:41.410Z,13.00
2022-08-31T06:10:15.622Z,13.20
2022-08-31T06:12:47.357Z,13.30
2022-08-31T06:15:17.103Z,13.40
2022-08-31T06:17:45.449Z,13.50
2022-08-31T06:20:17.720Z,13.60
2022-08-31T06:22:48.007Z,13.80
2022-08-31T06:25:28.067Z,13.80
2022-08-31T06:27:56.625Z,13.90
2022-08-31T06:30:27.622Z,14.00
2022-08-31T06:32:58.891Z,14.10
2022-08-31T06:35:40.171Z,14.30
2022-08-31T06:38:32.849Z,14.40
2022-08-31T06:41:36.665Z,14.40
2022-08-31T06:44:34.543Z,14.40
2022-08-31T06:47:23.429Z,14.50
2022-08-31T06:49:53.075Z,14.60
2022-08-31T06:52:22.068Z,14.60
2022-08-31T06:55:06.133Z,14.70
2022-08-31T06:57:54.190Z,14.80
2022-08-31T07:00:51.357Z,14.80
2022-08-31T07:03:34.071Z,14.90
2022-08-31T07:06:07.463Z,15.00
2022-08-31T07:08:35.694Z,15.10
2022-08-31T07:11:12.916Z,15.10
2022-08-31T07:13:42.956Z,15.20
2022-08-31T07:16:14.237Z,15.30
2022-08-31T07:18:43.609Z,15.40
2022-08-31T07:21:16.560Z,15.50
2022-08-31T07:23:45.811Z,15.50
2022-08-31T07:26:18.674Z,15.60
2022-08-31T07:28:52.879Z,15.60
2022-08-31T07:31:23.897Z,15.70
2022-08-31T07:33:56.032Z,15.80
2022-08-31T07:36:27.063Z,15.80
2022-08-31T07:39:19.136Z,15.90
2022-08-31T07:42:06.423Z,16.00
2022-08-31T07:44:36.049Z,16.10
2022-08-31T07:47:12.004Z,16.20
2022-08-31T07:49:44.549Z,16.30
2022-08-31T07:52:31.967Z,16.50
2022-08-31T07:55:20.085Z,16.50
2022-08-31T07:58:03.491Z,16.70
2022-08-31T08:00:36.116Z,16.80
2022-08-31T08:03:07.497Z,16.90
2022-08-31T08:05:56.006Z,16.90
2022-08-31T08:09:01.562Z,17.00
2022-08-31T08:12:01.234Z,17.10
2022-08-31T08:14:59.305Z,17.30
2022-08-31T08:17:44.432Z,17.40
2022-08-31T08:20:15.019Z,17.50
2022-08-31T08:22:55.288Z,17.60
2022-08-31T08:25:35.554Z,17.60
2022-08-31T08:28:39.075Z,17.70
2022-08-31T08:31:11.911Z,17.80
2022-08-31T08:33:42.939Z,17.80
2022-08-31T08:36:11.196Z,17.90
2022-08-31T08:38:43.892Z,18.00
2022-08-31T08:41:15.295Z,18.20
2022-08-31T08:43:52.872Z,18.30
2022-08-31T08:46:37.349Z,18.60
2022-08-31T08:49:16.422Z,18.70
2022-08-31T08:51:50.852Z,18.60
2022-08-31T08:54:31.535Z,18.60
2022-08-31T08:57:01.716Z,18.60
2022-08-31T08:59:30.703Z,18.40
2022-08-31T09:02:06.904Z,18.40
2022-08-31T09:05:14.579Z,18.50
2022-08-31T09:08:23.864Z,18.30
2022-08-31T09:11:06.418Z,18.40
2022-08-31T09:13:43.838Z,18.40
2022-08-31T09:16:22.153Z,18.50
2022-08-31T09:18:56.399Z,18.50
2022-08-31T09:21:29.617Z,18.60
2022-08-31T09:24:02.392Z,18.80
2022-08-31T09:26:54.479Z,19.00
2022-08-31T09:29:34.784Z,19.10
2022-08-31T09:32:06.507Z,19.20
2022-08-31T09:34:37.754Z,19.20
2022-08-31T09:37:22.335Z,19.20
2022-08-31T09:39:53.208Z,19.20
2022-08-31T09:42:31.521Z,19.40
2022-08-31T09:45:03.054Z,19.40
2022-08-31T09:47:48.549Z,19.60
2022-08-31T09:50:32.283Z,19.60
2022-08-31T09:53:34.147Z,19.60
2022-08-31T09:56:15.727Z,19.60
2022-08-31T09:58:47.462Z,19.60
2022-08-31T10:01:31.279Z,19.50
2022-08-31T10:04:20.524Z,19.50
2022-08-31T10:06:55.357Z,19.40
2022-08-31T10:09:36.300Z,19.50
2022-08-31T10:12:10.334Z,19.60
2022-08-31T10:14:44.149Z,19.70
2022-08-31T10:17:17.303Z,19.80
2022-08-31T10:19:54.111Z,19.70
2022-08-31T10:22:31.097Z,19.70
2022-08-31T10:25:22.789Z,19.90
2022-08-31T10:27:56.521Z,20.10
2022-08-31T10:30:32.063Z,20.00
2022-08-31T10:33:06.998Z,20.00
2022-08-31T10:35:45.124Z,20.00
2022-08-31T10:38:21.315Z,20.10
2022-08-31T10:41:00.309Z,20.00
2022-08-31T10:43:36.013Z,19.90
2022-08-31T10:46:06.082Z,19.90
2022-08-31T10:48:37.361Z,19.80
2022-08-31T10:51:21.333Z,19.90
2022-08-31T10:54:24.854Z,20.00
2022-08-31T10:57:05.605Z,20.10
2022-08-31T10:59:39.337Z,20.20
2022-08-31T11:02:45.282Z,20.10
2022-08-31T11:05:33.449Z,20.30
2022-08-31T11:08:18.367Z,20.50
2022-08-31T11:10:51.804Z,20.70
2022-08-31T11:13:39.727Z,20.90
2022-08-31T11:16:17.544Z,20.80
2022-08-31T11:19:25.495Z,20.70
2022-08-31T11:22:16.603Z,20.80
2022-08-31T11:25:18.779Z,20.70
2022-08-31T11:27:53.671Z,20.80
2022-08-31T11:30:29.020Z,20.70
2022-08-31T11:33:00.250Z,20.60
2022-08-31T11:36:04.087Z,20.60
2022-08-31T11:38:50.254Z,20.60
2022-08-31T11:41:35.648Z,20.60
2022-08-31T11:44:05.284Z,20.60
2022-08-31T11:46:44.095Z,20.70
2022-08-31T11:49:44.993Z,20.70
2022-08-31T11:52:37.140Z,20.70
2022-08-31T11:55:17.965Z,20.60
2022-08-31T11:58:11.576Z,20.60
2022-08-31T12:00:52.227Z,20.60
2022-08-31T12:03:53.019Z,20.60
2022-08-31T12:07:07.225Z,20.40
2022-08-31T12:10:18.959Z,20.30
2022-08-31T12:13:09.133Z,20.30
2022-08-31T12:15:55.275Z,20.10
2022-08-31T12:18:50.398Z,19.90
2022-08-31T12:21:43.587Z,19.70
2022-08-31T12:24:27.883Z,19.50
2022-08-31T12:27:24.822Z,19.40
2022-08-31T12:30:08.673Z,19.30
2022-08-31T12:32:40.773Z,19.30
2022-08-31T12:35:17.177Z,19.20
2022-08-31T12:37:45.878Z,19.20
2022-08-31T12:40:22.227Z,19.20
2022-08-31T12:42:58.998Z,19.20
2022-08-31T12:45:45.004Z,19.20
2022-08-31T12:48:33.914Z,19.40
2022-08-31T12:51:07.846Z,19.50
2022-08-31T12:53:53.630Z,19.60
2022-08-31T12:56:29.153Z,19.70
2022-08-31T12:59:16.777Z,19.80
2022-08-31T13:01:49.716Z,19.90
2022-08-31T13:04:20.096Z,19.90
2022-08-31T13:06:49.770Z,19.90
2022-08-31T13:09:27.592Z,19.80
2022-08-31T13:11:58.084Z,19.90
2022-08-31T13:14:32.005Z,20.00
2022-08-31T13:17:05.828Z,20.10
2022-08-31T13:19:36.345Z,20.10
2022-08-31T13:22:06.945Z,20.10
2022-08-31T13:24:37.819Z,20.30
2022-08-31T13:27:13.359Z,20.30
2022-08-31T13:29:45.268Z,20.40
2022-08-31T13:32:31.713Z,20.50
2022-08-31T13:35:04.442Z,20.40
2022-08-31T13:37:38.040Z,20.30
2022-08-31T13:40:10.791Z,20.10
2022-08-31T13:42:43.013Z,20.10
2022-08-31T13:45:26.714Z,19.90
2022-08-31T13:47:58.345Z,19.70
2022-08-31T13:50:34.240Z,19.60
2022-08-31T13:55:54.570Z,19.60
2022-08-31T13:58:29.832Z,19.70
2022-08-31T14:01:22.601Z,19.80
2022-08-31T14:03:57.463Z,19.80
2022-08-31T14:06:28.761Z,19.80
2022-08-31T14:09:03.500Z,19.90
2022-08-31T14:11:33.828Z,19.90
2022-08-31T14:14:06.172Z,19.90
2022-08-31T14:16:38.918Z,20.00
2022-08-31T14:19:12.312Z,20.10
2022-08-31T14:21:44.044Z,20.20
2022-08-31T14:24:13.194Z,20.30
2022-08-31T14:26:44.188Z,20.30
2022-08-31T14:29:15.471Z,20.30
2022-08-31T14:31:48.731Z,20.30
2022-08-31T14:34:22.710Z,20.30
2022-08-31T14:36:55.126Z,20.30
2022-08-31T14:39:27.478Z,20.40
2022-08-31T14:41:58.517Z,20.30
2022-08-31T14:44:29.367Z,20.40
2022-08-31T14:46:59.182Z,20.50
2022-08-31T14:49:32.707Z,20.60
2022-08-31T14:52:04.851Z,20.60
2022-08-31T14:54:34.933Z,20.60
2022-08-31T14:57:05.809Z,20.50
2022-08-31T14:59:35.900Z,20.50
2022-08-31T15:02:05.731Z,20.50
2022-08-31T15:04:34.088Z,20.60
2022-08-31T15:07:09.552Z,20.40
2022-08-31T15:09:41.419Z,20.30
2022-08-31T15:12:14.602Z,20.20
2022-08-31T15:14:47.304Z,20.20
2022-08-31T15:17:19.634Z,20.00
2022-08-31T15:19:53.311Z,19.80
2022-08-31T15:22:22.020Z,19.80
2022-08-31T15:24:50.245Z,19.80
2022-08-31T15:27:18.793Z,19.70
2022-08-31T15:29:49.604Z,19.70
2022-08-31T15:32:19.272Z,19.70
2022-08-31T15:34:53.536Z,19.80
2022-08-31T15:37:22.790Z,19.90
2022-08-31T15:39:52.112Z,19.90
2022-08-31T15:42:21.431Z,19.90
2022-08-31T15:44:56.138Z,19.90
2022-08-31T15:47:44.914Z,19.90
2022-08-31T15:50:13.903Z,19.90
2022-08-31T15:52:49.704Z,19.90
2022-08-31T15:55:23.908Z,19.90
2022-08-31T15:57:54.402Z,19.80
2022-08-31T16:00:26.101Z,19.80
2022-08-31T16:02:57.365Z,19.80
2022-08-31T16:05:28.519Z,19.70
2022-08-31T16:07:58.198Z,19.70
2022-08-31T16:10:28.306Z,19.60
2022-08-31T16:12:56.722Z,19.50
2022-08-31T16:15:28.137Z,19.50
2022-08-31T16:18:03.015Z,19.40
2022-08-31T16:20:34.591Z,19.20
2022-08-31T16:23:07.295Z,19.20
2022-08-31T16:25:47.645Z,19.20
2022-08-31T16:28:16.294Z,19.20
2022-08-31T16:30:45.323Z,19.00
2022-08-31T16:33:19.575Z,19.00
2022-08-31T16:35:48.121Z,18.90
2022-08-31T16:38:16.860Z,18.90
2022-08-31T16:40:45.185Z,18.90
2022-08-31T16:43:14.118Z,18.80
2022-08-31T16:45:42.990Z,18.80
2022-08-31T16:48:29.898Z,18.80
2022-08-31T16:51:02.844Z,18.70
2022-08-31T16:53:31.757Z,18.70
2022-08-31T16:56:03.900Z,18.50
2022-08-31T16:58:52.193Z,18.50
2022-08-31T17:01:23.507Z,18.40
2022-08-31T17:04:05.975Z,18.30
2022-08-31T17:06:49.142Z,18.30
2022-08-31T17:09:22.193Z,18.20
2022-08-31T17:11:56.842Z,18.20
2022-08-31T17:14:32.300Z,18.20
2022-08-31T17:17:03.540Z,18.20
2022-08-31T17:19:32.401Z,18.20
2022-08-31T17:22:04.962Z,18.20
2022-08-31T17:24:36.454Z,18.10
2022-08-31T17:27:05.825Z,18.10
2022-08-31T17:29:40.767Z,18.10
2022-08-31T17:32:14.775Z,18.10
2022-08-31T17:34:43.357Z,18.00
2022-08-31T17:37:15.319Z,18.00
2022-08-31T17:39:44.499Z,18.00
2022-08-31T17:42:15.247Z,18.00
2022-08-31T17:44:45.011Z,18.00
2022-08-31T17:47:13.364Z,18.00
2022-08-31T17:49:46.276Z,17.90
2022-08-31T17:52:16.689Z,17.90
2022-08-31T17:54:46.131Z,17.90
2022-08-31T17:57:16.920Z,17.80
2022-08-31T17:59:48.818Z,17.70
2022-08-31T18:02:21.114Z,17.70
2022-08-31T18:04:49.594Z,17.60
2022-08-31T18:07:19.337Z,17.60
2022-08-31T18:09:47.365Z,17.60
2022-08-31T18:12:16.652Z,17.50
2022-08-31T18:14:45.325Z,17.50
2022-08-31T18:17:16.190Z,17.40
2022-08-31T18:19:45.151Z,17.40
2022-08-31T18:22:14.614Z,17.30
2022-08-31T18:24:45.657Z,17.30
2022-08-31T18:27:16.070Z,17.20
2022-08-31T18:29:45.229Z,17.20
2022-08-31T18:32:14.811Z,17.20
2022-08-31T18:34:47.203Z,17.10
2022-08-31T18:37:22.107Z,17.10
2022-08-31T18:40:09.419Z,17.00
2022-08-31T18:42:57.184Z,17.00
2022-08-31T18:45:26.293Z,16.90
2022-08-31T18:50:45.814Z,16.90
2022-08-31T18:53:28.804Z,16.90
2022-08-31T18:56:05.848Z,16.90
2022-08-31T18:58:34.290Z,16.90
2022-08-31T19:01:02.888Z,16.80
2022-08-31T19:03:31.661Z,16.90
2022-08-31T19:05:59.759Z,16.90
2022-08-31T19:08:30.672Z,16.80
2022-08-31T19:11:00.693Z,16.80
2022-08-31T19:13:31.561Z,16.80
2022-08-31T19:16:10.759Z,16.80
2022-08-31T19:18:44.815Z,16.80
2022-08-31T19:21:15.388Z,16.80
2022-08-31T19:23:44.637Z,16.80
2022-08-31T19:26:21.285Z,16.80
2022-08-31T19:28:50.629Z,16.70
2022-08-31T19:31:20.953Z,16.70
2022-08-31T19:33:56.076Z,16.80
2022-08-31T19:36:24.632Z,16.80
2022-08-31T19:38:53.961Z,16.70
2022-08-31T19:41:26.271Z,16.70
2022-08-31T19:44:05.654Z,16.70
2022-08-31T19:46:37.186Z,16.70
2022-08-31T19:49:10.170Z,16.70
2022-08-31T19:51:40.198Z,16.70
2022-08-31T19:54:12.774Z,16.60
2022-08-31T19:56:44.013Z,16.50
2022-08-31T19:59:18.559Z,16.60
2022-08-31T20:01:48.352Z,16.60
2022-08-31T20:04:19.381Z,16.60
2022-08-31T20:06:49.233Z,16.60
2022-08-31T20:09:22.565Z,16.60
2022-08-31T20:11:53.271Z,16.60
2022-08-31T20:14:22.549Z,16.60
2022-08-31T20:16:52.293Z,16.60
2022-08-31T20:19:24.548Z,16.60
2022-08-31T20:21:53.954Z,16.60
2022-08-31T20:24:24.907Z,16.50
2022-08-31T20:26:57.031Z,16.50
2022-08-31T20:29:25.438Z,16.50
2022-08-31T20:31:55.561Z,16.50
2022-08-31T20:34:28.072Z,16.40
2022-08-31T20:37:01.083Z,16.40
2022-08-31T20:39:31.813Z,16.40
2022-08-31T20:42:03.268Z,16.40
2022-08-31T20:44:34.689Z,16.30
2022-08-31T20:47:22.568Z,16.30
2022-08-31T20:49:55.692Z,16.30
2022-08-31T20:52:25.902Z,16.30
2022-08-31T20:55:02.326Z,16.30
2022-08-31T20:57:33.053Z,16.30
2022-08-31T21:00:02.780Z,16.20
2022-08-31T21:02:31.669Z,16.20
2022-08-31T21:05:26.726Z,16.20
2022-08-31T21:07:50.167Z,16.10
2022-08-31T21:10:20.879Z,16.00
2022-08-31T21:12:53.342Z,16.00
2022-08-31T21:15:28.666Z,15.90
2022-08-31T21:17:57.572Z,15.90
2022-08-31T21:20:26.367Z,15.80
2022-08-31T21:22:54.506Z,15.80
2022-08-31T21:25:22.458Z,15.80
2022-08-31T21:27:52.879Z,15.70
2022-08-31T21:30:20.983Z,15.60
2022-08-31T21:32:48.851Z,15.60
2022-08-31T21:35:17.225Z,15.60
2022-08-31T21:37:47.330Z,15.50
2022-08-31T21:40:15.465Z,15.40
2022-08-31T21:42:43.396Z,15.30
2022-08-31T21:45:12.947Z,15.30
2022-08-31T21:47:40.854Z,15.10
2022-08-31T21:50:10.000Z,15.00
2022-08-31T21:52:37.878Z,14.90
2022-08-31T21:55:08.151Z,14.90
2022-08-31T21:57:36.066Z,14.80
2022-08-31T22:00:05.492Z,14.70
2022-08-31T22:02:37.396Z,14.70
2022-08-31T22:05:09.282Z,14.60
2022-08-31T22:07:40.094Z,14.60
2022-08-31T22:10:08.877Z,14.60
2022-08-31T22:12:36.749Z,14.50
2022-08-31T22:15:10.074Z,14.50
2022-08-31T22:18:01.938Z,14.40
2022-08-31T22:20:31.656Z,14.40
2022-08-31T22:22:59.586Z,14.40
2022-08-31T22:25:27.765Z,14.30
2022-08-31T22:27:55.637Z,14.30
2022-08-31T22:30:24.036Z,14.30
2022-08-31T22:32:53.866Z,14.20
2022-08-31T22:35:22.607Z,14.20
2022-08-31T22:37:50.515Z,14.10
2022-08-31T22:40:19.751Z,14.10
2022-08-31T22:42:49.040Z,14.00
2022-08-31T22:45:17.603Z,13.90
2022-08-31T22:47:50.029Z,13.80
2022-08-31T22:50:21.581Z,13.80
2022-08-31T22:52:49.609Z,13.70
2022-08-31T22:55:17.887Z,13.70
2022-08-31T22:57:45.764Z,13.60
2022-08-31T23:00:14.395Z,13.60
2022-08-31T23:02:45.125Z,13.50
2022-08-31T23:05:14.871Z,13.40
2022-08-31T23:07:44.195Z,13.30
2022-08-31T23:10:18.474Z,13.20
2022-08-31T23:12:47.960Z,13.00
2022-08-31T23:15:17.175Z,12.90
2022-08-31T23:17:49.535Z,12.80
2022-08-31T23:20:23.883Z,12.70
2022-08-31T23:22:54.986Z,12.70
2022-08-31T23:25:25.028Z,12.60
2022-08-31T23:27:53.551Z,12.60
2022-08-31T23:30:25.596Z,12.60
2022-08-31T23:32:53.521Z,12.60
2022-08-31T23:35:24.279Z,12.60
2022-08-31T23:37:54.305Z,12.50
2022-08-31T23:40:22.310Z,12.50
2022-08-31T23:42:50.491Z,12.50
2022-08-31T23:45:18.548Z,12.50
2022-08-31T23:47:46.519Z,12.50
2022-08-31T23:50:14.888Z,12.40
2022-08-31T23:52:43.750Z,12.40
2022-08-31T23:55:15.504Z,12.40
2022-08-31T23:57:44.409Z,12.30
